sensor_id;sensor_type;location;lat;lon;timestamp;P1;durP1;ratioP1;P2;durP2;ratioP2
6987;SDS011;3534;49.960;8.018;2022-11-25T00:01:04;13.97;;;4.10;;
6987;SDS011;3534;49.960;8.018;2022-11-25T00:03:32;6.83;;;3.47;;
6987;SDS011;3534;49.960;8.018;2022-11-25T00:06:06;14.90;;;4.30;;
6987;SDS011;3534;49.960;8.018;2022-11-25T00:08:34;10.57;;;4.27;;
6987;SDS011;3534;49.960;8.018;2022-11-25T00:11:01;7.00;;;3.67;;
6987;SDS011;3534;49.960;8.018;2022-11-25T00:13:28;7.53;;;3.63;;
6987;SDS011;3534;49.960;8.018;2022-11-25T00:15:59;8.00;;;3.27;;
6987;SDS011;3534;49.960;8.018;2022-11-25T00:18:26;7.10;;;3.30;;
6987;SDS011;3534;49.960;8.018;2022-11-25T00:20:53;8.07;;;4.37;;
6987;SDS011;3534;49.960;8.018;2022-11-25T00:23:19;12.10;;;4.20;;
6987;SDS011;3534;49.960;8.018;2022-11-25T00:25:46;7.00;;;4.07;;
6987;SDS011;3534;49.960;8.018;2022-11-25T00:28:13;11.10;;;5.03;;
6987;SDS011;3534;49.960;8.018;2022-11-25T00:30:41;8.57;;;4.00;;
6987;SDS011;3534;49.960;8.018;2022-11-25T00:33:09;12.30;;;4.40;;
6987;SDS011;3534;49.960;8.018;2022-11-25T00:35:36;5.73;;;3.80;;
6987;SDS011;3534;49.960;8.018;2022-11-25T00:38:02;11.53;;;4.00;;
6987;SDS011;3534;49.960;8.018;2022-11-25T00:40:29;10.90;;;4.30;;
6987;SDS011;3534;49.960;8.018;2022-11-25T00:42:56;24.23;;;6.10;;
6987;SDS011;3534;49.960;8.018;2022-11-25T00:45:39;12.43;;;4.27;;
6987;SDS011;3534;49.960;8.018;2022-11-25T00:48:07;17.67;;;4.40;;
6987;SDS011;3534;49.960;8.018;2022-11-25T00:50:35;8.70;;;3.40;;
6987;SDS011;3534;49.960;8.018;2022-11-25T00:53:01;11.47;;;3.60;;
6987;SDS011;3534;49.960;8.018;2022-11-25T00:55:28;14.67;;;3.80;;
6987;SDS011;3534;49.960;8.018;2022-11-25T00:58:15;7.40;;;3.80;;
6987;SDS011;3534;49.960;8.018;2022-11-25T01:00:41;11.83;;;3.93;;
6987;SDS011;3534;49.960;8.018;2022-11-25T01:03:09;13.70;;;5.37;;
6987;SDS011;3534;49.960;8.018;2022-11-25T01:05:37;17.70;;;6.47;;
6987;SDS011;3534;49.960;8.018;2022-11-25T01:08:04;11.97;;;4.60;;
6987;SDS011;3534;49.960;8.018;2022-11-25T01:10:31;12.53;;;4.40;;
6987;SDS011;3534;49.960;8.018;2022-11-25T01:12:57;5.50;;;3.00;;
6987;SDS011;3534;49.960;8.018;2022-11-25T01:15:24;9.87;;;3.50;;
6987;SDS011;3534;49.960;8.018;2022-11-25T01:17:51;11.20;;;3.00;;
6987;SDS011;3534;49.960;8.018;2022-11-25T01:20:17;7.90;;;3.33;;
6987;SDS011;3534;49.960;8.018;2022-11-25T01:22:45;8.67;;;3.03;;
6987;SDS011;3534;49.960;8.018;2022-11-25T01:25:12;9.97;;;3.83;;
6987;SDS011;3534;49.960;8.018;2022-11-25T01:27:39;8.83;;;3.50;;
6987;SDS011;3534;49.960;8.018;2022-11-25T01:30:07;7.20;;;3.20;;
6987;SDS011;3534;49.960;8.018;2022-11-25T01:32:34;7.53;;;3.40;;
6987;SDS011;3534;49.960;8.018;2022-11-25T01:35:01;15.90;;;3.67;;
6987;SDS011;3534;49.960;8.018;2022-11-25T01:37:28;7.27;;;3.70;;
6987;SDS011;3534;49.960;8.018;2022-11-25T01:39:56;7.17;;;3.87;;
6987;SDS011;3534;49.960;8.018;2022-11-25T01:42:26;9.83;;;3.97;;
6987;SDS011;3534;49.960;8.018;2022-11-25T01:45:18;11.73;;;4.53;;
6987;SDS011;3534;49.960;8.018;2022-11-25T01:48:00;11.93;;;3.40;;
6987;SDS011;3534;49.960;8.018;2022-11-25T01:50:31;9.20;;;3.23;;
6987;SDS011;3534;49.960;8.018;2022-11-25T01:53:00;8.60;;;3.63;;
6987;SDS011;3534;49.960;8.018;2022-11-25T01:55:32;9.97;;;3.40;;
6987;SDS011;3534;49.960;8.018;2022-11-25T01:58:02;13.07;;;4.17;;
6987;SDS011;3534;49.960;8.018;2022-11-25T02:00:32;10.63;;;4.07;;
6987;SDS011;3534;49.960;8.018;2022-11-25T02:02:59;11.40;;;3.73;;
6987;SDS011;3534;49.960;8.018;2022-11-25T02:05:29;11.77;;;3.93;;
6987;SDS011;3534;49.960;8.018;2022-11-25T02:08:01;7.07;;;3.03;;
6987;SDS011;3534;49.960;8.018;2022-11-25T02:10:29;9.10;;;3.50;;
6987;SDS011;3534;49.960;8.018;2022-11-25T02:12:59;5.53;;;2.93;;
6987;SDS011;3534;49.960;8.018;2022-11-25T02:15:27;9.03;;;3.40;;
6987;SDS011;3534;49.960;8.018;2022-11-25T02:17:56;12.50;;;3.80;;
6987;SDS011;3534;49.960;8.018;2022-11-25T02:20:23;8.47;;;3.20;;
6987;SDS011;3534;49.960;8.018;2022-11-25T02:22:56;11.60;;;4.03;;
6987;SDS011;3534;49.960;8.018;2022-11-25T02:25:28;7.87;;;3.53;;
6987;SDS011;3534;49.960;8.018;2022-11-25T02:27:57;5.10;;;2.53;;
6987;SDS011;3534;49.960;8.018;2022-11-25T02:30:26;8.53;;;2.77;;
6987;SDS011;3534;49.960;8.018;2022-11-25T02:32:54;11.50;;;3.03;;
6987;SDS011;3534;49.960;8.018;2022-11-25T02:35:27;12.03;;;3.07;;
6987;SDS011;3534;49.960;8.018;2022-11-25T02:37:58;12.23;;;3.10;;
6987;SDS011;3534;49.960;8.018;2022-11-25T02:40:30;6.20;;;3.27;;
6987;SDS011;3534;49.960;8.018;2022-11-25T02:42:58;5.80;;;2.97;;
6987;SDS011;3534;49.960;8.018;2022-11-25T02:45:30;10.27;;;3.10;;
6987;SDS011;3534;49.960;8.018;2022-11-25T02:48:04;5.53;;;2.80;;
6987;SDS011;3534;49.960;8.018;2022-11-25T02:50:31;10.53;;;3.53;;
6987;SDS011;3534;49.960;8.018;2022-11-25T02:52:58;7.43;;;3.67;;
6987;SDS011;3534;49.960;8.018;2022-11-25T02:55:25;10.03;;;3.10;;
6987;SDS011;3534;49.960;8.018;2022-11-25T02:57:53;5.43;;;3.40;;
6987;SDS011;3534;49.960;8.018;2022-11-25T03:00:20;7.53;;;3.00;;
6987;SDS011;3534;49.960;8.018;2022-11-25T03:02:46;10.17;;;3.43;;
6987;SDS011;3534;49.960;8.018;2022-11-25T03:05:17;7.80;;;3.33;;
6987;SDS011;3534;49.960;8.018;2022-11-25T03:07:43;14.53;;;4.10;;
6987;SDS011;3534;49.960;8.018;2022-11-25T03:10:10;8.47;;;3.50;;
6987;SDS011;3534;49.960;8.018;2022-11-25T03:12:37;7.63;;;3.10;;
6987;SDS011;3534;49.960;8.018;2022-11-25T03:15:06;6.03;;;2.97;;
6987;SDS011;3534;49.960;8.018;2022-11-25T03:17:33;6.77;;;3.27;;
6987;SDS011;3534;49.960;8.018;2022-11-25T03:20:00;9.83;;;3.37;;
6987;SDS011;3534;49.960;8.018;2022-11-25T03:22:26;8.03;;;3.67;;
6987;SDS011;3534;49.960;8.018;2022-11-25T03:24:53;6.10;;;3.40;;
6987;SDS011;3534;49.960;8.018;2022-11-25T03:27:20;6.50;;;3.03;;
6987;SDS011;3534;49.960;8.018;2022-11-25T03:29:47;9.30;;;3.30;;
6987;SDS011;3534;49.960;8.018;2022-11-25T03:32:15;5.63;;;2.93;;
6987;SDS011;3534;49.960;8.018;2022-11-25T03:34:41;14.20;;;3.83;;
6987;SDS011;3534;49.960;8.018;2022-11-25T03:37:08;11.83;;;4.27;;
6987;SDS011;3534;49.960;8.018;2022-11-25T03:39:35;6.93;;;2.93;;
6987;SDS011;3534;49.960;8.018;2022-11-25T03:42:02;9.63;;;3.03;;
6987;SDS011;3534;49.960;8.018;2022-11-25T03:44:29;10.93;;;4.07;;
6987;SDS011;3534;49.960;8.018;2022-11-25T03:46:55;9.10;;;5.87;;
6987;SDS011;3534;49.960;8.018;2022-11-25T03:49:24;11.33;;;4.80;;
6987;SDS011;3534;49.960;8.018;2022-11-25T03:51:50;10.10;;;3.83;;
6987;SDS011;3534;49.960;8.018;2022-11-25T03:54:17;10.00;;;3.33;;
6987;SDS011;3534;49.960;8.018;2022-11-25T03:56:44;7.10;;;3.73;;
6987;SDS011;3534;49.960;8.018;2022-11-25T03:59:11;5.87;;;3.30;;
6987;SDS011;3534;49.960;8.018;2022-11-25T04:01:37;10.23;;;3.53;;
6987;SDS011;3534;49.960;8.018;2022-11-25T04:04:05;5.83;;;3.10;;
6987;SDS011;3534;49.960;8.018;2022-11-25T04:06:33;8.70;;;3.80;;
6987;SDS011;3534;49.960;8.018;2022-11-25T04:08:59;7.50;;;4.00;;
6987;SDS011;3534;49.960;8.018;2022-11-25T04:11:26;14.53;;;4.90;;
6987;SDS011;3534;49.960;8.018;2022-11-25T04:14:07;13.27;;;5.10;;
6987;SDS011;3534;49.960;8.018;2022-11-25T04:16:33;12.30;;;4.63;;
6987;SDS011;3534;49.960;8.018;2022-11-25T04:19:00;11.10;;;5.40;;
6987;SDS011;3534;49.960;8.018;2022-11-25T04:21:27;7.17;;;3.70;;
6987;SDS011;3534;49.960;8.018;2022-11-25T04:23:55;7.80;;;3.90;;
6987;SDS011;3534;49.960;8.018;2022-11-25T04:26:22;10.63;;;4.50;;
6987;SDS011;3534;49.960;8.018;2022-11-25T04:28:48;9.63;;;4.40;;
6987;SDS011;3534;49.960;8.018;2022-11-25T04:31:15;5.03;;;3.20;;
6987;SDS011;3534;49.960;8.018;2022-11-25T04:33:42;9.13;;;4.37;;
6987;SDS011;3534;49.960;8.018;2022-11-25T04:36:09;9.80;;;4.90;;
6987;SDS011;3534;49.960;8.018;2022-11-25T04:38:36;12.60;;;6.13;;
6987;SDS011;3534;49.960;8.018;2022-11-25T04:41:04;9.47;;;5.17;;
6987;SDS011;3534;49.960;8.018;2022-11-25T04:43:31;11.13;;;5.30;;
6987;SDS011;3534;49.960;8.018;2022-11-25T04:45:57;10.37;;;4.77;;
6987;SDS011;3534;49.960;8.018;2022-11-25T04:48:24;12.00;;;5.40;;
6987;SDS011;3534;49.960;8.018;2022-11-25T04:50:51;11.30;;;5.30;;
6987;SDS011;3534;49.960;8.018;2022-11-25T04:53:18;8.30;;;4.33;;
6987;SDS011;3534;49.960;8.018;2022-11-25T04:55:44;8.70;;;4.33;;
6987;SDS011;3534;49.960;8.018;2022-11-25T04:58:13;6.63;;;4.77;;
6987;SDS011;3534;49.960;8.018;2022-11-25T05:01:01;10.03;;;4.50;;
6987;SDS011;3534;49.960;8.018;2022-11-25T05:03:27;14.90;;;4.60;;
6987;SDS011;3534;49.960;8.018;2022-11-25T05:05:54;10.40;;;4.63;;
6987;SDS011;3534;49.960;8.018;2022-11-25T05:08:21;8.93;;;4.60;;
6987;SDS011;3534;49.960;8.018;2022-11-25T05:10:47;18.97;;;5.87;;
6987;SDS011;3534;49.960;8.018;2022-11-25T05:13:15;11.50;;;5.20;;
6987;SDS011;3534;49.960;8.018;2022-11-25T05:15:42;11.60;;;5.33;;
6987;SDS011;3534;49.960;8.018;2022-11-25T05:18:09;11.53;;;5.13;;
6987;SDS011;3534;49.960;8.018;2022-11-25T05:20:35;13.77;;;5.50;;
6987;SDS011;3534;49.960;8.018;2022-11-25T05:23:02;20.00;;;5.70;;
6987;SDS011;3534;49.960;8.018;2022-11-25T05:25:29;13.70;;;5.40;;
6987;SDS011;3534;49.960;8.018;2022-11-25T05:27:56;11.47;;;6.10;;
6987;SDS011;3534;49.960;8.018;2022-11-25T05:30:24;16.77;;;9.07;;
6987;SDS011;3534;49.960;8.018;2022-11-25T05:32:50;17.50;;;9.60;;
6987;SDS011;3534;49.960;8.018;2022-11-25T05:35:17;16.80;;;6.87;;
6987;SDS011;3534;49.960;8.018;2022-11-25T05:37:45;13.73;;;6.20;;
6987;SDS011;3534;49.960;8.018;2022-11-25T05:40:12;12.90;;;6.60;;
6987;SDS011;3534;49.960;8.018;2022-11-25T05:42:39;12.70;;;6.33;;
6987;SDS011;3534;49.960;8.018;2022-11-25T05:45:07;11.90;;;5.47;;
6987;SDS011;3534;49.960;8.018;2022-11-25T05:47:36;16.43;;;5.10;;
6987;SDS011;3534;49.960;8.018;2022-11-25T05:50:03;16.03;;;5.20;;
6987;SDS011;3534;49.960;8.018;2022-11-25T05:52:31;12.60;;;5.87;;
6987;SDS011;3534;49.960;8.018;2022-11-25T05:54:58;13.07;;;5.47;;
6987;SDS011;3534;49.960;8.018;2022-11-25T05:57:25;13.47;;;5.90;;
6987;SDS011;3534;49.960;8.018;2022-11-25T06:02:21;12.10;;;6.23;;
6987;SDS011;3534;49.960;8.018;2022-11-25T06:04:49;11.93;;;5.33;;
6987;SDS011;3534;49.960;8.018;2022-11-25T06:07:15;15.50;;;6.47;;
6987;SDS011;3534;49.960;8.018;2022-11-25T06:09:42;11.13;;;5.40;;
6987;SDS011;3534;49.960;8.018;2022-11-25T06:12:09;20.47;;;6.40;;
6987;SDS011;3534;49.960;8.018;2022-11-25T06:14:35;14.60;;;6.13;;
6987;SDS011;3534;49.960;8.018;2022-11-25T06:17:02;11.00;;;5.80;;
6987;SDS011;3534;49.960;8.018;2022-11-25T06:19:29;13.10;;;6.70;;
6987;SDS011;3534;49.960;8.018;2022-11-25T06:21:57;20.37;;;6.90;;
6987;SDS011;3534;49.960;8.018;2022-11-25T06:24:24;20.60;;;7.17;;
6987;SDS011;3534;49.960;8.018;2022-11-25T06:26:51;21.40;;;7.43;;
6987;SDS011;3534;49.960;8.018;2022-11-25T06:29:17;17.40;;;7.73;;
6987;SDS011;3534;49.960;8.018;2022-11-25T06:31:44;19.10;;;8.80;;
6987;SDS011;3534;49.960;8.018;2022-11-25T06:34:11;18.13;;;9.47;;
6987;SDS011;3534;49.960;8.018;2022-11-25T06:36:38;26.87;;;16.10;;
6987;SDS011;3534;49.960;8.018;2022-11-25T06:39:06;16.47;;;8.80;;
6987;SDS011;3534;49.960;8.018;2022-11-25T06:41:32;14.27;;;7.47;;
6987;SDS011;3534;49.960;8.018;2022-11-25T06:43:59;20.03;;;8.93;;
6987;SDS011;3534;49.960;8.018;2022-11-25T06:46:26;13.00;;;7.07;;
6987;SDS011;3534;49.960;8.018;2022-11-25T06:48:53;21.60;;;8.70;;
6987;SDS011;3534;49.960;8.018;2022-11-25T06:51:19;12.80;;;7.37;;
6987;SDS011;3534;49.960;8.018;2022-11-25T06:53:48;19.03;;;9.17;;
6987;SDS011;3534;49.960;8.018;2022-11-25T06:56:17;13.83;;;8.20;;
6987;SDS011;3534;49.960;8.018;2022-11-25T06:58:45;15.23;;;7.37;;
6987;SDS011;3534;49.960;8.018;2022-11-25T07:01:13;22.40;;;10.10;;
6987;SDS011;3534;49.960;8.018;2022-11-25T07:03:41;15.20;;;8.40;;
6987;SDS011;3534;49.960;8.018;2022-11-25T07:06:09;11.67;;;7.33;;
6987;SDS011;3534;49.960;8.018;2022-11-25T07:08:37;17.50;;;9.50;;
6987;SDS011;3534;49.960;8.018;2022-11-25T07:11:04;13.63;;;9.53;;
6987;SDS011;3534;49.960;8.018;2022-11-25T07:13:34;22.80;;;10.20;;
6987;SDS011;3534;49.960;8.018;2022-11-25T07:16:01;14.03;;;9.97;;
6987;SDS011;3534;49.960;8.018;2022-11-25T07:18:29;21.87;;;11.57;;
6987;SDS011;3534;49.960;8.018;2022-11-25T07:21:00;19.53;;;12.47;;
6987;SDS011;3534;49.960;8.018;2022-11-25T07:23:28;21.57;;;12.10;;
6987;SDS011;3534;49.960;8.018;2022-11-25T07:25:54;22.40;;;12.40;;
6987;SDS011;3534;49.960;8.018;2022-11-25T07:28:26;20.97;;;11.57;;
6987;SDS011;3534;49.960;8.018;2022-11-25T07:30:54;21.90;;;10.43;;
6987;SDS011;3534;49.960;8.018;2022-11-25T07:33:21;19.70;;;9.80;;
6987;SDS011;3534;49.960;8.018;2022-11-25T07:35:48;19.53;;;9.70;;
6987;SDS011;3534;49.960;8.018;2022-11-25T07:38:14;19.83;;;10.17;;
6987;SDS011;3534;49.960;8.018;2022-11-25T07:40:41;23.43;;;9.20;;
6987;SDS011;3534;49.960;8.018;2022-11-25T07:43:08;18.10;;;8.50;;
6987;SDS011;3534;49.960;8.018;2022-11-25T07:45:35;18.43;;;9.47;;
6987;SDS011;3534;49.960;8.018;2022-11-25T07:48:04;19.83;;;9.37;;
6987;SDS011;3534;49.960;8.018;2022-11-25T07:50:32;23.53;;;13.10;;
6987;SDS011;3534;49.960;8.018;2022-11-25T07:52:59;19.80;;;10.53;;
6987;SDS011;3534;49.960;8.018;2022-11-25T07:55:27;13.80;;;8.20;;
6987;SDS011;3534;49.960;8.018;2022-11-25T07:57:54;18.47;;;7.30;;
6987;SDS011;3534;49.960;8.018;2022-11-25T08:00:22;15.90;;;8.07;;
6987;SDS011;3534;49.960;8.018;2022-11-25T08:02:50;15.77;;;7.23;;
6987;SDS011;3534;49.960;8.018;2022-11-25T08:05:18;17.67;;;7.60;;
6987;SDS011;3534;49.960;8.018;2022-11-25T08:07:46;10.93;;;6.80;;
6987;SDS011;3534;49.960;8.018;2022-11-25T08:10:14;19.83;;;8.20;;
6987;SDS011;3534;49.960;8.018;2022-11-25T08:12:41;13.77;;;7.53;;
6987;SDS011;3534;49.960;8.018;2022-11-25T08:15:09;15.13;;;8.47;;
6987;SDS011;3534;49.960;8.018;2022-11-25T08:17:36;16.30;;;7.73;;
6987;SDS011;3534;49.960;8.018;2022-11-25T08:20:04;18.70;;;7.97;;
6987;SDS011;3534;49.960;8.018;2022-11-25T08:22:34;14.20;;;7.37;;
6987;SDS011;3534;49.960;8.018;2022-11-25T08:25:01;13.57;;;7.80;;
6987;SDS011;3534;49.960;8.018;2022-11-25T08:27:29;17.30;;;7.97;;
6987;SDS011;3534;49.960;8.018;2022-11-25T08:29:55;18.93;;;8.20;;
6987;SDS011;3534;49.960;8.018;2022-11-25T08:32:22;14.27;;;8.00;;
6987;SDS011;3534;49.960;8.018;2022-11-25T08:34:49;18.83;;;8.43;;
6987;SDS011;3534;49.960;8.018;2022-11-25T08:37:16;13.57;;;7.70;;
6987;SDS011;3534;49.960;8.018;2022-11-25T08:39:44;13.10;;;8.00;;
6987;SDS011;3534;49.960;8.018;2022-11-25T08:42:11;17.27;;;7.53;;
6987;SDS011;3534;49.960;8.018;2022-11-25T08:44:38;18.63;;;8.37;;
6987;SDS011;3534;49.960;8.018;2022-11-25T08:47:04;12.70;;;6.83;;
6987;SDS011;3534;49.960;8.018;2022-11-25T08:49:31;19.57;;;7.53;;
6987;SDS011;3534;49.960;8.018;2022-11-25T08:51:58;11.40;;;7.20;;
6987;SDS011;3534;49.960;8.018;2022-11-25T08:54:24;14.97;;;7.50;;
6987;SDS011;3534;49.960;8.018;2022-11-25T08:56:52;17.77;;;7.10;;
6987;SDS011;3534;49.960;8.018;2022-11-25T08:59:19;15.13;;;7.47;;
6987;SDS011;3534;49.960;8.018;2022-11-25T09:01:46;21.63;;;8.00;;
6987;SDS011;3534;49.960;8.018;2022-11-25T09:04:13;13.57;;;8.40;;
6987;SDS011;3534;49.960;8.018;2022-11-25T09:06:40;12.53;;;7.57;;
6987;SDS011;3534;49.960;8.018;2022-11-25T09:09:07;17.70;;;8.53;;
6987;SDS011;3534;49.960;8.018;2022-11-25T09:11:33;26.60;;;13.00;;
6987;SDS011;3534;49.960;8.018;2022-11-25T09:14:02;24.07;;;11.03;;
6987;SDS011;3534;49.960;8.018;2022-11-25T09:16:28;20.87;;;9.37;;
6987;SDS011;3534;49.960;8.018;2022-11-25T09:18:55;18.17;;;9.27;;
6987;SDS011;3534;49.960;8.018;2022-11-25T09:21:24;23.03;;;9.40;;
6987;SDS011;3534;49.960;8.018;2022-11-25T09:23:51;28.43;;;10.87;;
6987;SDS011;3534;49.960;8.018;2022-11-25T09:26:20;23.13;;;10.27;;
6987;SDS011;3534;49.960;8.018;2022-11-25T09:28:48;23.03;;;10.80;;
6987;SDS011;3534;49.960;8.018;2022-11-25T09:31:16;21.40;;;10.70;;
6987;SDS011;3534;49.960;8.018;2022-11-25T09:33:43;18.00;;;10.30;;
6987;SDS011;3534;49.960;8.018;2022-11-25T09:36:11;14.73;;;8.50;;
6987;SDS011;3534;49.960;8.018;2022-11-25T09:38:39;25.03;;;10.23;;
6987;SDS011;3534;49.960;8.018;2022-11-25T09:41:09;24.00;;;10.10;;
6987;SDS011;3534;49.960;8.018;2022-11-25T09:44:19;24.73;;;10.87;;
6987;SDS011;3534;49.960;8.018;2022-11-25T09:47:20;26.20;;;10.83;;
6987;SDS011;3534;49.960;8.018;2022-11-25T09:49:59;18.50;;;10.13;;
6987;SDS011;3534;49.960;8.018;2022-11-25T09:52:35;19.20;;;10.53;;
6987;SDS011;3534;49.960;8.018;2022-11-25T09:55:14;22.20;;;11.67;;
6987;SDS011;3534;49.960;8.018;2022-11-25T09:57:47;20.27;;;11.23;;
6987;SDS011;3534;49.960;8.018;2022-11-25T10:00:27;16.43;;;11.30;;
6987;SDS011;3534;49.960;8.018;2022-11-25T10:03:05;20.40;;;9.63;;
6987;SDS011;3534;49.960;8.018;2022-11-25T10:05:40;28.80;;;10.53;;
6987;SDS011;3534;49.960;8.018;2022-11-25T10:08:08;13.27;;;8.50;;
6987;SDS011;3534;49.960;8.018;2022-11-25T10:10:40;18.57;;;9.67;;
6987;SDS011;3534;49.960;8.018;2022-11-25T10:13:12;16.37;;;9.67;;
6987;SDS011;3534;49.960;8.018;2022-11-25T10:15:44;20.57;;;8.80;;
6987;SDS011;3534;49.960;8.018;2022-11-25T10:18:16;18.63;;;8.70;;
6987;SDS011;3534;49.960;8.018;2022-11-25T10:20:48;15.77;;;9.10;;
6987;SDS011;3534;49.960;8.018;2022-11-25T10:23:18;19.60;;;9.77;;
6987;SDS011;3534;49.960;8.018;2022-11-25T10:25:49;12.13;;;7.80;;
6987;SDS011;3534;49.960;8.018;2022-11-25T10:28:19;14.90;;;8.80;;
6987;SDS011;3534;49.960;8.018;2022-11-25T10:30:49;19.27;;;9.23;;
6987;SDS011;3534;49.960;8.018;2022-11-25T10:33:26;24.83;;;9.57;;
6987;SDS011;3534;49.960;8.018;2022-11-25T10:35:56;21.90;;;9.10;;
6987;SDS011;3534;49.960;8.018;2022-11-25T10:38:26;16.60;;;7.87;;
6987;SDS011;3534;49.960;8.018;2022-11-25T10:41:02;19.57;;;7.87;;
6987;SDS011;3534;49.960;8.018;2022-11-25T10:43:29;20.87;;;8.77;;
6987;SDS011;3534;49.960;8.018;2022-11-25T10:45:57;16.60;;;7.70;;
6987;SDS011;3534;49.960;8.018;2022-11-25T10:48:40;15.50;;;8.70;;
6987;SDS011;3534;49.960;8.018;2022-11-25T10:51:16;12.83;;;7.77;;
6987;SDS011;3534;49.960;8.018;2022-11-25T10:54:08;14.43;;;7.93;;
6987;SDS011;3534;49.960;8.018;2022-11-25T10:56:41;20.03;;;7.70;;
6987;SDS011;3534;49.960;8.018;2022-11-25T10:59:12;14.93;;;7.20;;
6987;SDS011;3534;49.960;8.018;2022-11-25T11:01:39;16.53;;;6.47;;
6987;SDS011;3534;49.960;8.018;2022-11-25T11:04:11;12.97;;;6.97;;
6987;SDS011;3534;49.960;8.018;2022-11-25T11:06:39;20.17;;;7.53;;
6987;SDS011;3534;49.960;8.018;2022-11-25T11:09:14;14.83;;;7.53;;
6987;SDS011;3534;49.960;8.018;2022-11-25T11:11:56;11.00;;;6.40;;
6987;SDS011;3534;49.960;8.018;2022-11-25T11:14:31;15.30;;;6.67;;
6987;SDS011;3534;49.960;8.018;2022-11-25T11:16:58;14.00;;;6.87;;
6987;SDS011;3534;49.960;8.018;2022-11-25T11:19:26;18.50;;;6.73;;
6987;SDS011;3534;49.960;8.018;2022-11-25T11:21:55;12.00;;;6.33;;
6987;SDS011;3534;49.960;8.018;2022-11-25T11:24:39;12.47;;;7.40;;
6987;SDS011;3534;49.960;8.018;2022-11-25T11:27:12;13.10;;;7.60;;
6987;SDS011;3534;49.960;8.018;2022-11-25T11:29:44;20.33;;;8.30;;
6987;SDS011;3534;49.960;8.018;2022-11-25T11:32:18;13.30;;;6.70;;
6987;SDS011;3534;49.960;8.018;2022-11-25T11:34:53;23.40;;;11.33;;
6987;SDS011;3534;49.960;8.018;2022-11-25T11:37:32;45.90;;;34.40;;
6987;SDS011;3534;49.960;8.018;2022-11-25T11:40:15;30.73;;;16.73;;
6987;SDS011;3534;49.960;8.018;2022-11-25T11:43:02;11.90;;;6.53;;
6987;SDS011;3534;49.960;8.018;2022-11-25T11:45:49;13.57;;;6.40;;
6987;SDS011;3534;49.960;8.018;2022-11-25T11:48:30;17.70;;;6.90;;
6987;SDS011;3534;49.960;8.018;2022-11-25T11:51:08;15.67;;;7.20;;
6987;SDS011;3534;49.960;8.018;2022-11-25T11:53:45;15.10;;;7.00;;
6987;SDS011;3534;49.960;8.018;2022-11-25T11:56:26;15.90;;;7.50;;
6987;SDS011;3534;49.960;8.018;2022-11-25T12:01:54;13.20;;;7.60;;
6987;SDS011;3534;49.960;8.018;2022-11-25T12:04:37;14.50;;;7.53;;
6987;SDS011;3534;49.960;8.018;2022-11-25T12:07:10;13.70;;;7.57;;
6987;SDS011;3534;49.960;8.018;2022-11-25T12:09:44;19.50;;;7.80;;
6987;SDS011;3534;49.960;8.018;2022-11-25T12:12:16;13.90;;;6.63;;
6987;SDS011;3534;49.960;8.018;2022-11-25T12:14:45;18.43;;;8.07;;
6987;SDS011;3534;49.960;8.018;2022-11-25T12:17:16;10.70;;;6.40;;
6987;SDS011;3534;49.960;8.018;2022-11-25T12:19:48;15.70;;;6.50;;
6987;SDS011;3534;49.960;8.018;2022-11-25T12:22:22;18.00;;;6.83;;
6987;SDS011;3534;49.960;8.018;2022-11-25T12:24:56;16.37;;;6.60;;
6987;SDS011;3534;49.960;8.018;2022-11-25T12:27:30;11.43;;;5.57;;
6987;SDS011;3534;49.960;8.018;2022-11-25T12:30:02;12.07;;;6.23;;
6987;SDS011;3534;49.960;8.018;2022-11-25T12:32:45;14.73;;;6.83;;
6987;SDS011;3534;49.960;8.018;2022-11-25T12:35:19;18.67;;;6.77;;
6987;SDS011;3534;49.960;8.018;2022-11-25T12:37:55;12.10;;;6.73;;
6987;SDS011;3534;49.960;8.018;2022-11-25T12:40:29;17.47;;;6.87;;
6987;SDS011;3534;49.960;8.018;2022-11-25T12:43:03;10.13;;;6.60;;
6987;SDS011;3534;49.960;8.018;2022-11-25T12:45:37;14.60;;;7.30;;
6987;SDS011;3534;49.960;8.018;2022-11-25T12:48:07;16.53;;;7.63;;
6987;SDS011;3534;49.960;8.018;2022-11-25T12:50:39;14.97;;;7.60;;
6987;SDS011;3534;49.960;8.018;2022-11-25T12:53:16;15.80;;;6.73;;
6987;SDS011;3534;49.960;8.018;2022-11-25T12:55:49;12.60;;;7.50;;
6987;SDS011;3534;49.960;8.018;2022-11-25T12:58:21;16.47;;;8.40;;
6987;SDS011;3534;49.960;8.018;2022-11-25T13:01:20;17.60;;;7.67;;
6987;SDS011;3534;49.960;8.018;2022-11-25T13:04:20;23.00;;;10.33;;
6987;SDS011;3534;49.960;8.018;2022-11-25T13:07:22;22.10;;;8.27;;
6987;SDS011;3534;49.960;8.018;2022-11-25T13:10:07;16.80;;;9.63;;
6987;SDS011;3534;49.960;8.018;2022-11-25T13:13:03;17.30;;;9.70;;
6987;SDS011;3534;49.960;8.018;2022-11-25T13:15:43;16.10;;;7.53;;
6987;SDS011;3534;49.960;8.018;2022-11-25T13:18:12;23.47;;;9.20;;
6987;SDS011;3534;49.960;8.018;2022-11-25T13:20:42;30.43;;;13.67;;
6987;SDS011;3534;49.960;8.018;2022-11-25T13:23:21;16.60;;;7.97;;
6987;SDS011;3534;49.960;8.018;2022-11-25T13:25:52;17.13;;;7.53;;
6987;SDS011;3534;49.960;8.018;2022-11-25T13:28:39;16.23;;;7.27;;
6987;SDS011;3534;49.960;8.018;2022-11-25T13:31:15;9.70;;;6.40;;
6987;SDS011;3534;49.960;8.018;2022-11-25T13:33:58;15.93;;;6.87;;
6987;SDS011;3534;49.960;8.018;2022-11-25T13:36:45;14.30;;;6.67;;
6987;SDS011;3534;49.960;8.018;2022-11-25T13:39:13;16.13;;;7.30;;
6987;SDS011;3534;49.960;8.018;2022-11-25T13:41:56;14.23;;;7.60;;
6987;SDS011;3534;49.960;8.018;2022-11-25T13:44:25;14.33;;;8.20;;
6987;SDS011;3534;49.960;8.018;2022-11-25T13:46:56;20.93;;;8.50;;
6987;SDS011;3534;49.960;8.018;2022-11-25T13:49:33;16.50;;;8.57;;
6987;SDS011;3534;49.960;8.018;2022-11-25T13:52:22;15.73;;;8.53;;
6987;SDS011;3534;49.960;8.018;2022-11-25T13:55:00;14.73;;;7.30;;
6987;SDS011;3534;49.960;8.018;2022-11-25T13:57:34;12.50;;;9.50;;
6987;SDS011;3534;49.960;8.018;2022-11-25T14:00:05;36.37;;;15.50;;
6987;SDS011;3534;49.960;8.018;2022-11-25T14:02:52;24.90;;;11.30;;
6987;SDS011;3534;49.960;8.018;2022-11-25T14:05:40;14.17;;;6.70;;
6987;SDS011;3534;49.960;8.018;2022-11-25T14:08:20;12.20;;;6.37;;
6987;SDS011;3534;49.960;8.018;2022-11-25T14:10:59;10.90;;;5.13;;
6987;SDS011;3534;49.960;8.018;2022-11-25T14:13:53;11.77;;;4.90;;
6987;SDS011;3534;49.960;8.018;2022-11-25T14:16:42;7.50;;;4.23;;
6987;SDS011;3534;49.960;8.018;2022-11-25T14:19:34;13.93;;;5.60;;
6987;SDS011;3534;49.960;8.018;2022-11-25T14:22:15;8.10;;;4.20;;
6987;SDS011;3534;49.960;8.018;2022-11-25T14:25:12;10.23;;;6.73;;
6987;SDS011;3534;49.960;8.018;2022-11-25T14:27:43;13.63;;;6.40;;
6987;SDS011;3534;49.960;8.018;2022-11-25T14:30:14;15.73;;;7.53;;
6987;SDS011;3534;49.960;8.018;2022-11-25T14:32:43;12.60;;;5.50;;
6987;SDS011;3534;49.960;8.018;2022-11-25T14:35:17;10.23;;;4.20;;
6987;SDS011;3534;49.960;8.018;2022-11-25T14:37:47;5.67;;;3.07;;
6987;SDS011;3534;49.960;8.018;2022-11-25T14:40:18;9.13;;;4.37;;
6987;SDS011;3534;49.960;8.018;2022-11-25T14:42:51;7.30;;;3.63;;
6987;SDS011;3534;49.960;8.018;2022-11-25T14:45:27;9.77;;;5.07;;
6987;SDS011;3534;49.960;8.018;2022-11-25T14:47:55;13.10;;;5.30;;
6987;SDS011;3534;49.960;8.018;2022-11-25T14:50:25;8.50;;;4.90;;
6987;SDS011;3534;49.960;8.018;2022-11-25T14:53:12;10.60;;;5.07;;
6987;SDS011;3534;49.960;8.018;2022-11-25T14:55:40;21.77;;;7.03;;
6987;SDS011;3534;49.960;8.018;2022-11-25T14:58:08;23.97;;;7.20;;
6987;SDS011;3534;49.960;8.018;2022-11-25T15:00:49;19.10;;;5.97;;
6987;SDS011;3534;49.960;8.018;2022-11-25T15:03:18;12.13;;;3.80;;
6987;SDS011;3534;49.960;8.018;2022-11-25T15:05:51;14.03;;;4.67;;
6987;SDS011;3534;49.960;8.018;2022-11-25T15:08:19;10.63;;;3.43;;
6987;SDS011;3534;49.960;8.018;2022-11-25T15:10:49;8.20;;;3.33;;
6987;SDS011;3534;49.960;8.018;2022-11-25T15:13:22;9.60;;;4.27;;
6987;SDS011;3534;49.960;8.018;2022-11-25T15:15:55;10.53;;;4.67;;
6987;SDS011;3534;49.960;8.018;2022-11-25T15:18:29;16.67;;;4.50;;
6987;SDS011;3534;49.960;8.018;2022-11-25T15:20:58;20.00;;;4.13;;
6987;SDS011;3534;49.960;8.018;2022-11-25T15:23:27;15.50;;;4.53;;
6987;SDS011;3534;49.960;8.018;2022-11-25T15:25:58;12.47;;;3.67;;
6987;SDS011;3534;49.960;8.018;2022-11-25T15:28:26;15.77;;;6.00;;
6987;SDS011;3534;49.960;8.018;2022-11-25T15:31:00;9.67;;;5.20;;